sensor_id;sensor_type;location;lat;lon;timestamp;pressure;altitude;pressure_sealevel;temperature
60731;BMP280;46580;52.114;11.674;2023-08-06T00:02:00;100217.84;;;17.90
60731;BMP280;46580;52.114;11.674;2023-08-06T00:04:25;100224.56;;;17.77
60731;BMP280;46580;52.114;11.674;2023-08-06T00:06:50;100215.78;;;17.78
60731;BMP280;46580;52.114;11.674;2023-08-06T00:09:16;100217.69;;;17.84
60731;BMP280;46580;52.114;11.674;2023-08-06T00:11:41;100211.44;;;17.92
60731;BMP280;46580;52.114;11.674;2023-08-06T00:14:08;100205.47;;;18.06
60731;BMP280;46580;52.114;11.674;2023-08-06T00:16:34;100195.66;;;18.16
60731;BMP280;46580;52.114;11.674;2023-08-06T00:18:59;100189.38;;;18.24
60731;BMP280;46580;52.114;11.674;2023-08-06T00:21:25;100189.72;;;18.22
60731;BMP280;46580;52.114;11.674;2023-08-06T00:23:50;100185.31;;;18.22
60731;BMP280;46580;52.114;11.674;2023-08-06T00:26:17;100181.84;;;18.29
60731;BMP280;46580;52.114;11.674;2023-08-06T00:28:42;100175.28;;;18.33
60731;BMP280;46580;52.114;11.674;2023-08-06T00:31:08;100172.59;;;18.41
60731;BMP280;46580;52.114;11.674;2023-08-06T00:33:33;100168.22;;;18.56
60731;BMP280;46580;52.114;11.674;2023-08-06T00:35:58;100163.38;;;18.53
60731;BMP280;46580;52.114;11.674;2023-08-06T00:38:24;100160.31;;;18.49
60731;BMP280;46580;52.114;11.674;2023-08-06T00:40:49;100158.25;;;18.45
60731;BMP280;46580;52.114;11.674;2023-08-06T00:43:14;100153.44;;;18.34
60731;BMP280;46580;52.114;11.674;2023-08-06T00:45:40;100143.94;;;18.41
60731;BMP280;46580;52.114;11.674;2023-08-06T00:48:05;100137.84;;;18.48
60731;BMP280;46580;52.114;11.674;2023-08-06T00:50:34;100134.88;;;18.51
60731;BMP280;46580;52.114;11.674;2023-08-06T00:52:59;100131.72;;;18.56
60731;BMP280;46580;52.114;11.674;2023-08-06T00:55:25;100132.81;;;18.61
60731;BMP280;46580;52.114;11.674;2023-08-06T00:57:50;100127.16;;;18.58
60731;BMP280;46580;52.114;11.674;2023-08-06T01:00:18;100125.19;;;18.60
60731;BMP280;46580;52.114;11.674;2023-08-06T01:02:44;100118.97;;;18.61
60731;BMP280;46580;52.114;11.674;2023-08-06T01:05:10;100118.53;;;18.57
60731;BMP280;46580;52.114;11.674;2023-08-06T01:10:49;100119.06;;;18.24
60731;BMP280;46580;52.114;11.674;2023-08-06T01:13:40;100120.38;;;18.21
60731;BMP280;46580;52.114;11.674;2023-08-06T01:16:09;100126.28;;;18.15
60731;BMP280;46580;52.114;11.674;2023-08-06T01:18:34;100126.78;;;18.18
60731;BMP280;46580;52.114;11.674;2023-08-06T01:23:31;100109.59;;;18.24
60731;BMP280;46580;52.114;11.674;2023-08-06T01:28:36;100113.84;;;18.24
60731;BMP280;46580;52.114;11.674;2023-08-06T01:31:07;100109.06;;;18.28
60731;BMP280;46580;52.114;11.674;2023-08-06T01:33:37;100105.72;;;18.20
60731;BMP280;46580;52.114;11.674;2023-08-06T01:36:05;100100.63;;;18.12
60731;BMP280;46580;52.114;11.674;2023-08-06T01:38:31;100110.66;;;18.01
60731;BMP280;46580;52.114;11.674;2023-08-06T01:40:56;100103.53;;;17.95
60731;BMP280;46580;52.114;11.674;2023-08-06T01:43:22;100103.00;;;17.99
60731;BMP280;46580;52.114;11.674;2023-08-06T01:45:47;100103.38;;;17.96
60731;BMP280;46580;52.114;11.674;2023-08-06T01:48:12;100101.09;;;17.93
60731;BMP280;46580;52.114;11.674;2023-08-06T01:50:38;100103.19;;;17.98
60731;BMP280;46580;52.114;11.674;2023-08-06T01:53:03;100092.59;;;17.99
60731;BMP280;46580;52.114;11.674;2023-08-06T01:55:29;100092.03;;;17.89
60731;BMP280;46580;52.114;11.674;2023-08-06T01:57:55;100101.25;;;17.78
60731;BMP280;46580;52.114;11.674;2023-08-06T02:00:21;100096.47;;;17.81
60731;BMP280;46580;52.114;11.674;2023-08-06T02:02:46;100085.88;;;17.83
60731;BMP280;46580;52.114;11.674;2023-08-06T02:05:11;100083.25;;;17.90
60731;BMP280;46580;52.114;11.674;2023-08-06T02:07:37;100080.53;;;17.84
60731;BMP280;46580;52.114;11.674;2023-08-06T02:10:02;100081.66;;;17.82
60731;BMP280;46580;52.114;11.674;2023-08-06T02:12:27;100067.19;;;17.79
60731;BMP280;46580;52.114;11.674;2023-08-06T02:14:53;100068.38;;;17.77
60731;BMP280;46580;52.114;11.674;2023-08-06T02:17:18;100063.16;;;17.77
60731;BMP280;46580;52.114;11.674;2023-08-06T02:19:43;100065.84;;;17.69
60731;BMP280;46580;52.114;11.674;2023-08-06T02:22:09;100070.47;;;17.59
60731;BMP280;46580;52.114;11.674;2023-08-06T02:24:34;100072.44;;;17.57
60731;BMP280;46580;52.114;11.674;2023-08-06T02:27:00;100064.66;;;17.57
60731;BMP280;46580;52.114;11.674;2023-08-06T02:29:25;100066.59;;;17.55
60731;BMP280;46580;52.114;11.674;2023-08-06T02:31:50;100058.69;;;17.49
60731;BMP280;46580;52.114;11.674;2023-08-06T02:34:16;100050.06;;;17.49
60731;BMP280;46580;52.114;11.674;2023-08-06T02:36:41;100042.84;;;17.58
60731;BMP280;46580;52.114;11.674;2023-08-06T02:39:06;100035.31;;;17.63
60731;BMP280;46580;52.114;11.674;2023-08-06T02:41:32;100031.53;;;17.66
60731;BMP280;46580;52.114;11.674;2023-08-06T02:43:57;100025.34;;;17.67
60731;BMP280;46580;52.114;11.674;2023-08-06T02:46:23;100032.06;;;17.61
60731;BMP280;46580;52.114;11.674;2023-08-06T02:48:48;100027.03;;;17.60
60731;BMP280;46580;52.114;11.674;2023-08-06T02:51:13;100022.31;;;17.63
60731;BMP280;46580;52.114;11.674;2023-08-06T02:53:39;100022.13;;;17.65
60731;BMP280;46580;52.114;11.674;2023-08-06T02:56:04;100025.09;;;17.76
60731;BMP280;46580;52.114;11.674;2023-08-06T02:58:29;100017.56;;;17.81
60731;BMP280;46580;52.114;11.674;2023-08-06T03:01:05;100010.13;;;17.78
60731;BMP280;46580;52.114;11.674;2023-08-06T03:03:32;100011.53;;;17.66
60731;BMP280;46580;52.114;11.674;2023-08-06T03:05:58;100005.06;;;17.62
60731;BMP280;46580;52.114;11.674;2023-08-06T03:08:24;100004.16;;;17.55
60731;BMP280;46580;52.114;11.674;2023-08-06T03:10:49;99999.94;;;17.54
60731;BMP280;46580;52.114;11.674;2023-08-06T03:13:16;100000.09;;;17.53
60731;BMP280;46580;52.114;11.674;2023-08-06T03:15:41;99998.94;;;17.55
60731;BMP280;46580;52.114;11.674;2023-08-06T03:18:07;99992.06;;;17.62
60731;BMP280;46580;52.114;11.674;2023-08-06T03:20:32;99985.31;;;17.67
60731;BMP280;46580;52.114;11.674;2023-08-06T03:22:58;99985.16;;;17.69
60731;BMP280;46580;52.114;11.674;2023-08-06T03:25:24;99987.75;;;17.69
60731;BMP280;46580;52.114;11.674;2023-08-06T03:27:50;99983.19;;;17.71
60731;BMP280;46580;52.114;11.674;2023-08-06T03:30:15;99979.81;;;17.85
60731;BMP280;46580;52.114;11.674;2023-08-06T03:32:41;99988.31;;;17.79
60731;BMP280;46580;52.114;11.674;2023-08-06T03:35:06;99984.97;;;17.70
60731;BMP280;46580;52.114;11.674;2023-08-06T03:37:32;99989.38;;;17.70
60731;BMP280;46580;52.114;11.674;2023-08-06T03:39:57;99988.09;;;17.66
60731;BMP280;46580;52.114;11.674;2023-08-06T03:42:22;99984.78;;;17.58
60731;BMP280;46580;52.114;11.674;2023-08-06T03:44:48;99984.59;;;17.59
60731;BMP280;46580;52.114;11.674;2023-08-06T03:47:13;99975.72;;;17.68
60731;BMP280;46580;52.114;11.674;2023-08-06T03:49:39;99977.69;;;17.66
60731;BMP280;46580;52.114;11.674;2023-08-06T03:52:05;99976.63;;;17.75
60731;BMP280;46580;52.114;11.674;2023-08-06T03:54:30;99971.34;;;17.68
60731;BMP280;46580;52.114;11.674;2023-08-06T03:56:56;99982.53;;;17.55
60731;BMP280;46580;52.114;11.674;2023-08-06T03:59:21;99983.50;;;17.54
60731;BMP280;46580;52.114;11.674;2023-08-06T04:01:46;99971.94;;;17.56
60731;BMP280;46580;52.114;11.674;2023-08-06T04:04:12;99973.19;;;17.60
60731;BMP280;46580;52.114;11.674;2023-08-06T04:06:37;99971.50;;;17.67
60731;BMP280;46580;52.114;11.674;2023-08-06T04:09:03;99978.09;;;17.77
60731;BMP280;46580;52.114;11.674;2023-08-06T04:11:28;99975.00;;;17.74
60731;BMP280;46580;52.114;11.674;2023-08-06T04:13:53;99970.53;;;17.68
60731;BMP280;46580;52.114;11.674;2023-08-06T04:16:20;99969.78;;;17.60
60731;BMP280;46580;52.114;11.674;2023-08-06T04:18:46;99977.06;;;17.50
60731;BMP280;46580;52.114;11.674;2023-08-06T04:21:11;99971.66;;;17.37
60731;BMP280;46580;52.114;11.674;2023-08-06T04:23:36;99974.19;;;17.45
60731;BMP280;46580;52.114;11.674;2023-08-06T04:26:02;99971.28;;;17.40
60731;BMP280;46580;52.114;11.674;2023-08-06T04:28:27;99972.09;;;17.41
60731;BMP280;46580;52.114;11.674;2023-08-06T04:30:53;99962.25;;;17.50
60731;BMP280;46580;52.114;11.674;2023-08-06T04:33:19;99969.41;;;17.49
60731;BMP280;46580;52.114;11.674;2023-08-06T04:35:45;99967.94;;;17.32
60731;BMP280;46580;52.114;11.674;2023-08-06T04:38:10;99975.47;;;17.27
60731;BMP280;46580;52.114;11.674;2023-08-06T04:40:35;99965.06;;;17.27
60731;BMP280;46580;52.114;11.674;2023-08-06T04:43:01;99977.25;;;17.27
60731;BMP280;46580;52.114;11.674;2023-08-06T04:45:26;99965.31;;;17.32
60731;BMP280;46580;52.114;11.674;2023-08-06T04:47:52;99957.13;;;17.43
60731;BMP280;46580;52.114;11.674;2023-08-06T04:50:18;99957.75;;;17.45
60731;BMP280;46580;52.114;11.674;2023-08-06T04:52:43;99949.66;;;17.40
60731;BMP280;46580;52.114;11.674;2023-08-06T04:55:09;99957.19;;;17.35
60731;BMP280;46580;52.114;11.674;2023-08-06T04:57:34;99959.16;;;17.33
60731;BMP280;46580;52.114;11.674;2023-08-06T04:59:59;99965.06;;;17.27
60731;BMP280;46580;52.114;11.674;2023-08-06T05:02:25;99958.22;;;17.26
60731;BMP280;46580;52.114;11.674;2023-08-06T05:04:50;99965.97;;;17.34
60731;BMP280;46580;52.114;11.674;2023-08-06T05:07:15;99961.25;;;17.37
60731;BMP280;46580;52.114;11.674;2023-08-06T05:09:41;99959.66;;;17.50
60731;BMP280;46580;52.114;11.674;2023-08-06T05:12:06;99965.25;;;17.40
60731;BMP280;46580;52.114;11.674;2023-08-06T05:14:32;99949.16;;;17.44
60731;BMP280;46580;52.114;11.674;2023-08-06T05:16:57;99947.59;;;17.35
60731;BMP280;46580;52.114;11.674;2023-08-06T05:19:22;99942.94;;;17.31
60731;BMP280;46580;52.114;11.674;2023-08-06T05:21:48;99948.13;;;17.31
60731;BMP280;46580;52.114;11.674;2023-08-06T05:24:13;99944.44;;;17.40
60731;BMP280;46580;52.114;11.674;2023-08-06T05:26:38;99946.22;;;17.25
60731;BMP280;46580;52.114;11.674;2023-08-06T05:29:04;99941.00;;;17.25
60731;BMP280;46580;52.114;11.674;2023-08-06T05:31:29;99938.06;;;17.28
60731;BMP280;46580;52.114;11.674;2023-08-06T05:33:55;99945.22;;;17.26
60731;BMP280;46580;52.114;11.674;2023-08-06T05:36:20;99938.69;;;17.16
60731;BMP280;46580;52.114;11.674;2023-08-06T05:38:46;99934.56;;;17.21
60731;BMP280;46580;52.114;11.674;2023-08-06T05:41:12;99936.09;;;17.30
60731;BMP280;46580;52.114;11.674;2023-08-06T05:43:37;99935.56;;;17.34
60731;BMP280;46580;52.114;11.674;2023-08-06T05:46:02;99928.75;;;17.33
60731;BMP280;46580;52.114;11.674;2023-08-06T05:48:29;99937.03;;;17.37
60731;BMP280;46580;52.114;11.674;2023-08-06T05:50:54;99925.91;;;17.43
60731;BMP280;46580;52.114;11.674;2023-08-06T05:53:20;99931.53;;;17.46
60731;BMP280;46580;52.114;11.674;2023-08-06T05:55:45;99925.47;;;17.53
60731;BMP280;46580;52.114;11.674;2023-08-06T05:58:10;99923.84;;;17.52
60731;BMP280;46580;52.114;11.674;2023-08-06T06:00:36;99935.25;;;17.51
60731;BMP280;46580;52.114;11.674;2023-08-06T06:03:01;99930.06;;;17.51
60731;BMP280;46580;52.114;11.674;2023-08-06T06:05:27;99931.56;;;17.60
60731;BMP280;46580;52.114;11.674;2023-08-06T06:07:53;99928.53;;;17.71
60731;BMP280;46580;52.114;11.674;2023-08-06T06:10:18;99927.56;;;17.72
60731;BMP280;46580;52.114;11.674;2023-08-06T06:12:43;99925.28;;;17.69
60731;BMP280;46580;52.114;11.674;2023-08-06T06:15:09;99926.19;;;17.62
60731;BMP280;46580;52.114;11.674;2023-08-06T06:17:34;99931.56;;;17.60
60731;BMP280;46580;52.114;11.674;2023-08-06T06:20:00;99929.50;;;17.42
60731;BMP280;46580;52.114;11.674;2023-08-06T06:22:25;99928.84;;;17.40
60731;BMP280;46580;52.114;11.674;2023-08-06T06:24:51;99930.44;;;17.27
60731;BMP280;46580;52.114;11.674;2023-08-06T06:27:16;99936.81;;;17.24
60731;BMP280;46580;52.114;11.674;2023-08-06T06:29:41;99928.31;;;17.30
60731;BMP280;46580;52.114;11.674;2023-08-06T06:32:07;99921.47;;;17.29
60731;BMP280;46580;52.114;11.674;2023-08-06T06:34:32;99923.44;;;17.27
60731;BMP280;46580;52.114;11.674;2023-08-06T06:36:57;99920.84;;;17.27
60731;BMP280;46580;52.114;11.674;2023-08-06T06:39:23;99921.56;;;17.21
60731;BMP280;46580;52.114;11.674;2023-08-06T06:41:48;99918.41;;;17.26
60731;BMP280;46580;52.114;11.674;2023-08-06T06:44:13;99920.94;;;17.33
60731;BMP280;46580;52.114;11.674;2023-08-06T06:46:40;99926.53;;;17.45
60731;BMP280;46580;52.114;11.674;2023-08-06T06:49:05;99925.53;;;17.46
60731;BMP280;46580;52.114;11.674;2023-08-06T06:51:31;99920.63;;;17.50
60731;BMP280;46580;52.114;11.674;2023-08-06T06:53:57;99920.34;;;17.60
60731;BMP280;46580;52.114;11.674;2023-08-06T06:56:22;99911.03;;;17.65
60731;BMP280;46580;52.114;11.674;2023-08-06T06:58:47;99911.72;;;17.73
60731;BMP280;46580;52.114;11.674;2023-08-06T07:01:13;99910.31;;;17.71
60731;BMP280;46580;52.114;11.674;2023-08-06T07:03:38;99916.34;;;17.71
60731;BMP280;46580;52.114;11.674;2023-08-06T07:06:04;99912.91;;;17.71
60731;BMP280;46580;52.114;11.674;2023-08-06T07:08:30;99915.31;;;17.72
60731;BMP280;46580;52.114;11.674;2023-08-06T07:11:03;99917.66;;;17.82
60731;BMP280;46580;52.114;11.674;2023-08-06T07:13:29;99911.47;;;17.83
60731;BMP280;46580;52.114;11.674;2023-08-06T07:15:55;99911.81;;;17.80
60731;BMP280;46580;52.114;11.674;2023-08-06T07:18:20;99919.47;;;17.81
60731;BMP280;46580;52.114;11.674;2023-08-06T07:20:53;99919.22;;;17.90
60731;BMP280;46580;52.114;11.674;2023-08-06T07:23:21;99918.50;;;17.96
60731;BMP280;46580;52.114;11.674;2023-08-06T07:25:47;99913.72;;;18.00
60731;BMP280;46580;52.114;11.674;2023-08-06T07:28:13;99917.28;;;18.13
60731;BMP280;46580;52.114;11.674;2023-08-06T07:30:39;99919.56;;;18.16
60731;BMP280;46580;52.114;11.674;2023-08-06T07:33:05;99912.72;;;18.15
60731;BMP280;46580;52.114;11.674;2023-08-06T07:35:31;99908.16;;;18.17
60731;BMP280;46580;52.114;11.674;2023-08-06T07:37:56;99912.38;;;18.18
60731;BMP280;46580;52.114;11.674;2023-08-06T07:40:22;99909.59;;;18.19
60731;BMP280;46580;52.114;11.674;2023-08-06T07:42:47;99904.00;;;18.22
60731;BMP280;46580;52.114;11.674;2023-08-06T07:45:14;99906.50;;;18.30
60731;BMP280;46580;52.114;11.674;2023-08-06T07:47:39;99908.19;;;18.37
60731;BMP280;46580;52.114;11.674;2023-08-06T07:50:05;99905.84;;;18.42
60731;BMP280;46580;52.114;11.674;2023-08-06T07:52:30;99900.41;;;18.58
60731;BMP280;46580;52.114;11.674;2023-08-06T07:54:56;99903.22;;;18.77
60731;BMP280;46580;52.114;11.674;2023-08-06T07:57:21;99906.63;;;18.77
60731;BMP280;46580;52.114;11.674;2023-08-06T07:59:46;99906.00;;;18.75
60731;BMP280;46580;52.114;11.674;2023-08-06T08:02:12;99898.03;;;18.62
60731;BMP280;46580;52.114;11.674;2023-08-06T08:04:37;99897.28;;;18.68
60731;BMP280;46580;52.114;11.674;2023-08-06T08:07:03;99895.97;;;18.93
60731;BMP280;46580;52.114;11.674;2023-08-06T08:09:28;99892.25;;;19.08
60731;BMP280;46580;52.114;11.674;2023-08-06T08:11:53;99888.47;;;19.10
60731;BMP280;46580;52.114;11.674;2023-08-06T08:14:19;99895.41;;;19.24
60731;BMP280;46580;52.114;11.674;2023-08-06T08:16:44;99897.41;;;19.22
60731;BMP280;46580;52.114;11.674;2023-08-06T08:19:10;99886.97;;;19.22
60731;BMP280;46580;52.114;11.674;2023-08-06T08:21:35;99892.19;;;19.22
60731;BMP280;46580;52.114;11.674;2023-08-06T08:24:00;99896.81;;;19.20
60731;BMP280;46580;52.114;11.674;2023-08-06T08:26:26;99891.41;;;19.28
60731;BMP280;46580;52.114;11.674;2023-08-06T08:28:53;99890.69;;;19.34
60731;BMP280;46580;52.114;11.674;2023-08-06T08:31:18;99893.59;;;19.51
60731;BMP280;46580;52.114;11.674;2023-08-06T08:33:44;99888.50;;;19.64
60731;BMP280;46580;52.114;11.674;2023-08-06T08:36:09;99893.34;;;19.67
60731;BMP280;46580;52.114;11.674;2023-08-06T08:38:35;99893.41;;;19.79
60731;BMP280;46580;52.114;11.674;2023-08-06T08:41:00;99889.34;;;19.71
60731;BMP280;46580;52.114;11.674;2023-08-06T08:43:26;99892.66;;;19.92
60731;BMP280;46580;52.114;11.674;2023-08-06T08:45:53;99882.09;;;20.06
60731;BMP280;46580;52.114;11.674;2023-08-06T08:48:24;99881.09;;;20.13
60731;BMP280;46580;52.114;11.674;2023-08-06T08:50:50;99870.88;;;20.18
60731;BMP280;46580;52.114;11.674;2023-08-06T08:53:17;99871.16;;;20.35
60731;BMP280;46580;52.114;11.674;2023-08-06T08:55:47;99873.13;;;20.27
60731;BMP280;46580;52.114;11.674;2023-08-06T08:58:13;99872.47;;;20.19
60731;BMP280;46580;52.114;11.674;2023-08-06T09:00:41;99869.44;;;20.15
60731;BMP280;46580;52.114;11.674;2023-08-06T09:03:07;99871.88;;;20.23
60731;BMP280;46580;52.114;11.674;2023-08-06T09:05:33;99866.69;;;20.29
60731;BMP280;46580;52.114;11.674;2023-08-06T09:08:05;99865.50;;;20.32
60731;BMP280;46580;52.114;11.674;2023-08-06T09:10:31;99863.25;;;20.29
60731;BMP280;46580;52.114;11.674;2023-08-06T09:12:57;99853.03;;;20.34
60731;BMP280;46580;52.114;11.674;2023-08-06T09:15:26;99853.88;;;20.41
60731;BMP280;46580;52.114;11.674;2023-08-06T09:17:53;99855.03;;;20.32
60731;BMP280;46580;52.114;11.674;2023-08-06T09:20:19;99863.56;;;20.47
60731;BMP280;46580;52.114;11.674;2023-08-06T09:22:44;99855.31;;;20.56
60731;BMP280;46580;52.114;11.674;2023-08-06T09:25:10;99857.34;;;20.60
60731;BMP280;46580;52.114;11.674;2023-08-06T09:27:37;99847.88;;;20.59
60731;BMP280;46580;52.114;11.674;2023-08-06T09:30:04;99846.06;;;20.53
60731;BMP280;46580;52.114;11.674;2023-08-06T09:32:48;99840.03;;;20.59
60731;BMP280;46580;52.114;11.674;2023-08-06T09:35:19;99833.00;;;20.47
60731;BMP280;46580;52.114;11.674;2023-08-06T09:37:45;99831.75;;;20.37
60731;BMP280;46580;52.114;11.674;2023-08-06T09:42:56;99844.56;;;20.19
60731;BMP280;46580;52.114;11.674;2023-08-06T09:45:22;99837.28;;;20.15
60731;BMP280;46580;52.114;11.674;2023-08-06T09:47:49;99842.94;;;20.18
60731;BMP280;46580;52.114;11.674;2023-08-06T09:50:16;99844.56;;;20.26
60731;BMP280;46580;52.114;11.674;2023-08-06T09:52:42;99838.34;;;20.33
60731;BMP280;46580;52.114;11.674;2023-08-06T09:55:10;99839.78;;;20.35
60731;BMP280;46580;52.114;11.674;2023-08-06T09:57:37;99837.78;;;20.44
60731;BMP280;46580;52.114;11.674;2023-08-06T10:00:03;99825.34;;;20.58
60731;BMP280;46580;52.114;11.674;2023-08-06T10:02:30;99821.75;;;20.59
60731;BMP280;46580;52.114;11.674;2023-08-06T10:04:57;99819.31;;;20.51
60731;BMP280;46580;52.114;11.674;2023-08-06T10:07:23;99811.09;;;20.54
60731;BMP280;46580;52.114;11.674;2023-08-06T10:09:49;99802.00;;;20.63
60731;BMP280;46580;52.114;11.674;2023-08-06T10:12:15;99811.66;;;20.69
60731;BMP280;46580;52.114;11.674;2023-08-06T10:14:43;99809.66;;;20.71
60731;BMP280;46580;52.114;11.674;2023-08-06T10:17:11;99816.91;;;20.69
60731;BMP280;46580;52.114;11.674;2023-08-06T10:19:36;99815.31;;;20.62
60731;BMP280;46580;52.114;11.674;2023-08-06T10:22:20;99813.09;;;20.65
60731;BMP280;46580;52.114;11.674;2023-08-06T10:24:58;99804.44;;;20.71
60731;BMP280;46580;52.114;11.674;2023-08-06T10:27:34;99802.25;;;20.74
60731;BMP280;46580;52.114;11.674;2023-08-06T10:30:23;99807.25;;;20.76
60731;BMP280;46580;52.114;11.674;2023-08-06T10:32:53;99804.44;;;20.84
60731;BMP280;46580;52.114;11.674;2023-08-06T10:38:17;99802.84;;;20.95
60731;BMP280;46580;52.114;11.674;2023-08-06T10:43:48;99801.53;;;21.55
60731;BMP280;46580;52.114;11.674;2023-08-06T10:46:25;99787.38;;;21.75
60731;BMP280;46580;52.114;11.674;2023-08-06T10:48:52;99788.94;;;21.82
60731;BMP280;46580;52.114;11.674;2023-08-06T10:51:17;99788.47;;;21.98
60731;BMP280;46580;52.114;11.674;2023-08-06T10:53:47;99780.38;;;22.05
60731;BMP280;46580;52.114;11.674;2023-08-06T10:56:22;99777.19;;;21.97
60731;BMP280;46580;52.114;11.674;2023-08-06T10:58:49;99776.03;;;21.87
60731;BMP280;46580;52.114;11.674;2023-08-06T11:01:15;99778.25;;;21.77
60731;BMP280;46580;52.114;11.674;2023-08-06T11:03:44;99769.47;;;21.59
60731;BMP280;46580;52.114;11.674;2023-08-06T11:06:10;99769.41;;;21.78
60731;BMP280;46580;52.114;11.674;2023-08-06T11:08:38;99762.88;;;21.99
60731;BMP280;46580;52.114;11.674;2023-08-06T11:11:10;99752.16;;;22.07
60731;BMP280;46580;52.114;11.674;2023-08-06T11:13:38;99760.69;;;21.97
60731;BMP280;46580;52.114;11.674;2023-08-06T11:16:05;99756.91;;;21.80
60731;BMP280;46580;52.114;11.674;2023-08-06T11:18:31;99749.97;;;21.98
60731;BMP280;46580;52.114;11.674;2023-08-06T11:20:59;99744.16;;;21.83
60731;BMP280;46580;52.114;11.674;2023-08-06T11:23:27;99753.28;;;21.87
60731;BMP280;46580;52.114;11.674;2023-08-06T11:25:53;99736.94;;;21.79
60731;BMP280;46580;52.114;11.674;2023-08-06T11:28:19;99734.50;;;21.84
60731;BMP280;46580;52.114;11.674;2023-08-06T11:30:47;99732.88;;;21.96
60731;BMP280;46580;52.114;11.674;2023-08-06T11:33:12;99730.53;;;22.12
60731;BMP280;46580;52.114;11.674;2023-08-06T11:35:38;99727.47;;;22.21
60731;BMP280;46580;52.114;11.674;2023-08-06T11:38:05;99733.25;;;22.29
60731;BMP280;46580;52.114;11.674;2023-08-06T11:40:32;99738.50;;;22.53
60731;BMP280;46580;52.114;11.674;2023-08-06T11:42:57;99732.91;;;22.91
60731;BMP280;46580;52.114;11.674;2023-08-06T11:45:26;99725.41;;;22.77
60731;BMP280;46580;52.114;11.674;2023-08-06T11:47:52;99719.97;;;22.48
60731;BMP280;46580;52.114;11.674;2023-08-06T11:50:27;99723.63;;;22.47
60731;BMP280;46580;52.114;11.674;2023-08-06T11:52:55;99717.78;;;22.45
60731;BMP280;46580;52.114;11.674;2023-08-06T11:55:23;99720.91;;;22.36
60731;BMP280;46580;52.114;11.674;2023-08-06T11:57:49;99720.72;;;22.31
60731;BMP280;46580;52.114;11.674;2023-08-06T12:00:14;99719.84;;;22.13
60731;BMP280;46580;52.114;11.674;2023-08-06T12:02:43;99718.91;;;22.32
60731;BMP280;46580;52.114;11.674;2023-08-06T12:05:13;99716.16;;;22.74
60731;BMP280;46580;52.114;11.674;2023-08-06T12:07:41;99721.25;;;22.87
60731;BMP280;46580;52.114;11.674;2023-08-06T12:10:08;99719.75;;;22.97
60731;BMP280;46580;52.114;11.674;2023-08-06T12:12:37;99718.78;;;22.92
60731;BMP280;46580;52.114;11.674;2023-08-06T12:15:04;99715.28;;;22.80
60731;BMP280;46580;52.114;11.674;2023-08-06T12:17:31;99711.66;;;22.99
60731;BMP280;46580;52.114;11.674;2023-08-06T12:19:57;99703.50;;;23.24
60731;BMP280;46580;52.114;11.674;2023-08-06T12:22:22;99702.28;;;23.27
60731;BMP280;46580;52.114;11.674;2023-08-06T12:24:48;99712.38;;;22.88
60731;BMP280;46580;52.114;11.674;2023-08-06T12:27:13;99709.84;;;22.52
60731;BMP280;46580;52.114;11.674;2023-08-06T12:29:44;99705.78;;;22.32
60731;BMP280;46580;52.114;11.674;2023-08-06T12:32:10;99703.16;;;22.32
60731;BMP280;46580;52.114;11.674;2023-08-06T12:34:40;99698.06;;;22.13
60731;BMP280;46580;52.114;11.674;2023-08-06T12:37:06;99695.91;;;22.34
60731;BMP280;46580;52.114;11.674;2023-08-06T12:39:35;99695.69;;;22.59
60731;BMP280;46580;52.114;11.674;2023-08-06T12:42:02;99695.84;;;22.40
60731;BMP280;46580;52.114;11.674;2023-08-06T12:44:28;99697.25;;;22.66
60731;BMP280;46580;52.114;11.674;2023-08-06T12:46:54;99702.16;;;22.80
60731;BMP280;46580;52.114;11.674;2023-08-06T12:49:21;99696.50;;;22.83
60731;BMP280;46580;52.114;11.674;2023-08-06T12:51:48;99690.56;;;22.70
60731;BMP280;46580;52.114;11.674;2023-08-06T12:54:13;99699.41;;;22.75
60731;BMP280;46580;52.114;11.674;2023-08-06T12:56:38;99695.53;;;22.54
60731;BMP280;46580;52.114;11.674;2023-08-06T12:59:04;99694.34;;;22.74
60731;BMP280;46580;52.114;11.674;2023-08-06T13:01:29;99705.09;;;22.90
60731;BMP280;46580;52.114;11.674;2023-08-06T13:03:55;99696.91;;;22.98
60731;BMP280;46580;52.114;11.674;2023-08-06T13:06:21;99695.22;;;23.27
60731;BMP280;46580;52.114;11.674;2023-08-06T13:08:47;99687.84;;;23.93
60731;BMP280;46580;52.114;11.674;2023-08-06T13:11:12;99682.41;;;24.45
60731;BMP280;46580;52.114;11.674;2023-08-06T13:13:38;99679.75;;;24.34
60731;BMP280;46580;52.114;11.674;2023-08-06T13:16:03;99690.81;;;23.56
60731;BMP280;46580;52.114;11.674;2023-08-06T13:18:28;99697.56;;;22.93
60731;BMP280;46580;52.114;11.674;2023-08-06T13:20:54;99690.78;;;22.86
60731;BMP280;46580;52.114;11.674;2023-08-06T13:23:20;99696.72;;;22.58
60731;BMP280;46580;52.114;11.674;2023-08-06T13:25:45;99692.78;;;22.19
60731;BMP280;46580;52.114;11.674;2023-08-06T13:28:11;99692.47;;;22.09
60731;BMP280;46580;52.114;11.674;2023-08-06T13:30:36;99692.41;;;22.16
60731;BMP280;46580;52.114;11.674;2023-08-06T13:33:10;99690.84;;;22.08
60731;BMP280;46580;52.114;11.674;2023-08-06T13:35:35;99691.09;;;22.00
60731;BMP280;46580;52.114;11.674;2023-08-06T13:38:01;99689.78;;;21.79
60731;BMP280;46580;52.114;11.674;2023-08-06T13:40:32;99681.78;;;21.74
60731;BMP280;46580;52.114;11.674;2023-08-06T13:42:58;99678.84;;;21.95
60731;BMP280;46580;52.114;11.674;2023-08-06T13:45:23;99676.44;;;21.93
60731;BMP280;46580;52.114;11.674;2023-08-06T13:47:49;99678.28;;;22.40
60731;BMP280;46580;52.114;11.674;2023-08-06T13:50:14;99674.31;;;22.79
60731;BMP280;46580;52.114;11.674;2023-08-06T13:52:40;99680.66;;;22.48
60731;BMP280;46580;52.114;11.674;2023-08-06T13:55:06;99675.66;;;22.40
60731;BMP280;46580;52.114;11.674;2023-08-06T13:57:32;99682.03;;;22.57
60731;BMP280;46580;52.114;11.674;2023-08-06T13:59:57;99682.78;;;22.34
60731;BMP280;46580;52.114;11.674;2023-08-06T14:02:22;99682.41;;;22.06
60731;BMP280;46580;52.114;11.674;2023-08-06T14:04:48;99680.09;;;22.40
60731;BMP280;46580;52.114;11.674;2023-08-06T14:07:13;99669.94;;;22.50